sensor_id;sensor_type;location;lat;lon;timestamp;pressure;altitude;pressure_sealevel;temperature;humidity
5872;BME280;2962;51.312;7.378;2023-03-14T00:01:33;95080.03;;;8.35;100.00
5872;BME280;2962;51.312;7.378;2023-03-14T00:03:58;95082.38;;;8.32;100.00
5872;BME280;2962;51.312;7.378;2023-03-14T00:06:24;95075.88;;;8.26;100.00
5872;BME280;2962;51.312;7.378;2023-03-14T00:08:50;95066.13;;;8.29;100.00
5872;BME280;2962;51.312;7.378;2023-03-14T00:11:21;95061.53;;;8.26;100.00
5872;BME280;2962;51.312;7.378;2023-03-14T00:13:47;95049.22;;;8.21;100.00
5872;BME280;2962;51.312;7.378;2023-03-14T00:16:13;95050.50;;;8.13;100.00
5872;BME280;2962;51.312;7.378;2023-03-14T00:18:39;95052.88;;;8.11;100.00
5872;BME280;2962;51.312;7.378;2023-03-14T00:21:06;95030.75;;;8.13;100.00
5872;BME280;2962;51.312;7.378;2023-03-14T00:23:33;95045.13;;;8.10;100.00
5872;BME280;2962;51.312;7.378;2023-03-14T00:26:10;95026.97;;;8.06;100.00
5872;BME280;2962;51.312;7.378;2023-03-14T00:28:36;95051.06;;;8.01;100.00
5872;BME280;2962;51.312;7.378;2023-03-14T00:31:03;95078.81;;;8.12;100.00
5872;BME280;2962;51.312;7.378;2023-03-14T00:33:29;95078.66;;;8.23;100.00
5872;BME280;2962;51.312;7.378;2023-03-14T00:38:20;95070.81;;;8.28;100.00
5872;BME280;2962;51.312;7.378;2023-03-14T00:40:46;95077.31;;;8.35;100.00
5872;BME280;2962;51.312;7.378;2023-03-14T00:43:11;95071.44;;;8.40;100.00
5872;BME280;2962;51.312;7.378;2023-03-14T00:45:36;95051.31;;;8.37;100.00
5872;BME280;2962;51.312;7.378;2023-03-14T00:48:02;95047.78;;;8.40;100.00
5872;BME280;2962;51.312;7.378;2023-03-14T00:50:27;95038.13;;;8.39;100.00
5872;BME280;2962;51.312;7.378;2023-03-14T00:52:52;95054.28;;;8.46;100.00
5872;BME280;2962;51.312;7.378;2023-03-14T00:55:17;95050.50;;;8.40;100.00
5872;BME280;2962;51.312;7.378;2023-03-14T00:57:43;95050.44;;;8.44;100.00
5872;BME280;2962;51.312;7.378;2023-03-14T01:00:09;95024.50;;;8.43;100.00
5872;BME280;2962;51.312;7.378;2023-03-14T01:02:37;95043.53;;;8.39;100.00
5872;BME280;2962;51.312;7.378;2023-03-14T01:05:02;95023.69;;;8.46;100.00
5872;BME280;2962;51.312;7.378;2023-03-14T01:07:27;95035.34;;;8.43;100.00
5872;BME280;2962;51.312;7.378;2023-03-14T01:09:53;95032.63;;;8.43;100.00
5872;BME280;2962;51.312;7.378;2023-03-14T01:12:18;95021.41;;;8.41;100.00
5872;BME280;2962;51.312;7.378;2023-03-14T01:14:43;95035.44;;;8.36;100.00
5872;BME280;2962;51.312;7.378;2023-03-14T01:17:08;95039.78;;;8.29;100.00
5872;BME280;2962;51.312;7.378;2023-03-14T01:19:34;95046.28;;;8.36;100.00
5872;BME280;2962;51.312;7.378;2023-03-14T01:21:59;95041.78;;;8.25;100.00
5872;BME280;2962;51.312;7.378;2023-03-14T01:24:24;95097.59;;;8.26;100.00
5872;BME280;2962;51.312;7.378;2023-03-14T01:26:50;95139.66;;;8.11;100.00
5872;BME280;2962;51.312;7.378;2023-03-14T01:29:15;95161.75;;;7.41;100.00
5872;BME280;2962;51.312;7.378;2023-03-14T01:31:40;95143.19;;;7.02;100.00
5872;BME280;2962;51.312;7.378;2023-03-14T01:34:05;95128.34;;;6.76;100.00
5872;BME280;2962;51.312;7.378;2023-03-14T01:36:31;95109.59;;;6.54;100.00
5872;BME280;2962;51.312;7.378;2023-03-14T01:38:56;95079.22;;;6.32;100.00
5872;BME280;2962;51.312;7.378;2023-03-14T01:41:25;95117.78;;;6.44;100.00
5872;BME280;2962;51.312;7.378;2023-03-14T01:43:51;95117.81;;;6.36;100.00
5872;BME280;2962;51.312;7.378;2023-03-14T01:46:20;95105.47;;;6.35;100.00
5872;BME280;2962;51.312;7.378;2023-03-14T01:51:33;95085.44;;;6.29;100.00
5872;BME280;2962;51.312;7.378;2023-03-14T01:54:16;95076.53;;;6.29;100.00
5872;BME280;2962;51.312;7.378;2023-03-14T01:56:47;95071.19;;;6.22;100.00
5872;BME280;2962;51.312;7.378;2023-03-14T01:59:14;95073.13;;;6.21;100.00
5872;BME280;2962;51.312;7.378;2023-03-14T02:01:42;95076.97;;;6.27;100.00
5872;BME280;2962;51.312;7.378;2023-03-14T02:04:08;95085.47;;;6.22;100.00
5872;BME280;2962;51.312;7.378;2023-03-14T02:06:41;95075.41;;;6.26;100.00
5872;BME280;2962;51.312;7.378;2023-03-14T02:09:09;95063.81;;;6.26;100.00
5872;BME280;2962;51.312;7.378;2023-03-14T02:11:34;95073.59;;;6.13;100.00
5872;BME280;2962;51.312;7.378;2023-03-14T02:13:59;95066.97;;;6.17;100.00
5872;BME280;2962;51.312;7.378;2023-03-14T02:16:26;95066.94;;;6.24;100.00
5872;BME280;2962;51.312;7.378;2023-03-14T02:18:51;95067.28;;;6.26;100.00
5872;BME280;2962;51.312;7.378;2023-03-14T02:21:34;95062.25;;;6.32;100.00
5872;BME280;2962;51.312;7.378;2023-03-14T02:24:13;95057.66;;;6.25;100.00
5872;BME280;2962;51.312;7.378;2023-03-14T02:27:15;95066.09;;;6.34;100.00
5872;BME280;2962;51.312;7.378;2023-03-14T02:29:47;95073.03;;;6.35;100.00
5872;BME280;2962;51.312;7.378;2023-03-14T02:32:14;95054.44;;;6.38;100.00
5872;BME280;2962;51.312;7.378;2023-03-14T02:34:42;95051.41;;;6.35;100.00
5872;BME280;2962;51.312;7.378;2023-03-14T02:37:09;95056.78;;;6.39;100.00
5872;BME280;2962;51.312;7.378;2023-03-14T02:39:38;95051.03;;;6.30;100.00
5872;BME280;2962;51.312;7.378;2023-03-14T02:42:04;95069.56;;;6.35;100.00
5872;BME280;2962;51.312;7.378;2023-03-14T02:44:29;95062.25;;;6.28;100.00
5872;BME280;2962;51.312;7.378;2023-03-14T02:46:54;95050.28;;;6.26;100.00
5872;BME280;2962;51.312;7.378;2023-03-14T02:49:20;95044.50;;;6.27;100.00
5872;BME280;2962;51.312;7.378;2023-03-14T02:51:45;95044.56;;;6.20;100.00
5872;BME280;2962;51.312;7.378;2023-03-14T02:54:11;95037.19;;;6.24;100.00
5872;BME280;2962;51.312;7.378;2023-03-14T02:56:37;95051.88;;;6.23;100.00
5872;BME280;2962;51.312;7.378;2023-03-14T02:59:04;95029.88;;;6.21;100.00
5872;BME280;2962;51.312;7.378;2023-03-14T03:01:29;95022.94;;;6.20;100.00
5872;BME280;2962;51.312;7.378;2023-03-14T03:03:55;95029.75;;;6.35;100.00
5872;BME280;2962;51.312;7.378;2023-03-14T03:06:20;95003.47;;;6.36;100.00
5872;BME280;2962;51.312;7.378;2023-03-14T03:08:45;95020.78;;;6.46;100.00
5872;BME280;2962;51.312;7.378;2023-03-14T03:11:11;95018.88;;;6.43;100.00
5872;BME280;2962;51.312;7.378;2023-03-14T03:13:36;95035.84;;;6.47;100.00
5872;BME280;2962;51.312;7.378;2023-03-14T03:16:01;95039.63;;;6.53;100.00
5872;BME280;2962;51.312;7.378;2023-03-14T03:18:27;95027.28;;;6.52;100.00
5872;BME280;2962;51.312;7.378;2023-03-14T03:20:52;95018.00;;;6.53;100.00
5872;BME280;2962;51.312;7.378;2023-03-14T03:23:17;95025.75;;;6.51;100.00
5872;BME280;2962;51.312;7.378;2023-03-14T03:25:50;95027.69;;;6.50;100.00
5872;BME280;2962;51.312;7.378;2023-03-14T03:28:16;95027.25;;;6.55;100.00
5872;BME280;2962;51.312;7.378;2023-03-14T03:30:42;95016.41;;;6.59;100.00
5872;BME280;2962;51.312;7.378;2023-03-14T03:33:08;95016.47;;;6.52;100.00
5872;BME280;2962;51.312;7.378;2023-03-14T03:35:34;95008.34;;;6.52;100.00
5872;BME280;2962;51.312;7.378;2023-03-14T03:37:59;95013.69;;;6.59;100.00
5872;BME280;2962;51.312;7.378;2023-03-14T03:40:24;95024.22;;;6.50;100.00
5872;BME280;2962;51.312;7.378;2023-03-14T03:42:49;94981.38;;;6.45;100.00
5872;BME280;2962;51.312;7.378;2023-03-14T03:45:15;95002.97;;;6.48;100.00
5872;BME280;2962;51.312;7.378;2023-03-14T03:47:41;94997.94;;;6.50;100.00
5872;BME280;2962;51.312;7.378;2023-03-14T03:50:06;95014.16;;;6.54;100.00
5872;BME280;2962;51.312;7.378;2023-03-14T03:52:32;94992.53;;;6.50;100.00
5872;BME280;2962;51.312;7.378;2023-03-14T03:54:57;94993.44;;;6.36;100.00
5872;BME280;2962;51.312;7.378;2023-03-14T03:57:22;95025.75;;;6.51;100.00
5872;BME280;2962;51.312;7.378;2023-03-14T03:59:47;95013.41;;;6.50;100.00
5872;BME280;2962;51.312;7.378;2023-03-14T04:02:13;95009.59;;;6.44;100.00
5872;BME280;2962;51.312;7.378;2023-03-14T04:04:38;95001.16;;;6.38;100.00
5872;BME280;2962;51.312;7.378;2023-03-14T04:07:03;95011.09;;;6.48;100.00
5872;BME280;2962;51.312;7.378;2023-03-14T04:09:29;95019.19;;;6.52;100.00
5872;BME280;2962;51.312;7.378;2023-03-14T04:11:55;95004.94;;;6.44;100.00
5872;BME280;2962;51.312;7.378;2023-03-14T04:14:20;95016.53;;;6.45;100.00
5872;BME280;2962;51.312;7.378;2023-03-14T04:16:45;95019.63;;;6.47;100.00
5872;BME280;2962;51.312;7.378;2023-03-14T04:19:11;95023.09;;;6.47;100.00
5872;BME280;2962;51.312;7.378;2023-03-14T04:21:36;95018.81;;;6.50;100.00
5872;BME280;2962;51.312;7.378;2023-03-14T04:24:01;94984.88;;;6.42;100.00
5872;BME280;2962;51.312;7.378;2023-03-14T04:26:27;95000.75;;;6.40;100.00
5872;BME280;2962;51.312;7.378;2023-03-14T04:28:52;94996.50;;;6.39;100.00
5872;BME280;2962;51.312;7.378;2023-03-14T04:31:20;94990.69;;;6.40;100.00
5872;BME280;2962;51.312;7.378;2023-03-14T04:33:46;94978.84;;;6.27;100.00
5872;BME280;2962;51.312;7.378;2023-03-14T04:36:11;94975.72;;;6.28;100.00
5872;BME280;2962;51.312;7.378;2023-03-14T04:38:37;94965.66;;;6.32;100.00
5872;BME280;2962;51.312;7.378;2023-03-14T04:41:02;94961.03;;;6.29;100.00
5872;BME280;2962;51.312;7.378;2023-03-14T04:43:28;94958.72;;;6.31;100.00
5872;BME280;2962;51.312;7.378;2023-03-14T04:45:55;94956.44;;;6.26;100.00
5872;BME280;2962;51.312;7.378;2023-03-14T04:48:20;94958.66;;;6.39;100.00
5872;BME280;2962;51.312;7.378;2023-03-14T04:50:46;94957.69;;;6.56;100.00
5872;BME280;2962;51.312;7.378;2023-03-14T04:53:12;94956.94;;;6.55;100.00
5872;BME280;2962;51.312;7.378;2023-03-14T04:55:37;94945.09;;;6.42;100.00
5872;BME280;2962;51.312;7.378;2023-03-14T04:58:03;94925.94;;;6.22;100.00
5872;BME280;2962;51.312;7.378;2023-03-14T05:00:28;94930.94;;;6.27;100.00
5872;BME280;2962;51.312;7.378;2023-03-14T05:02:53;94933.19;;;6.32;100.00
5872;BME280;2962;51.312;7.378;2023-03-14T05:05:19;94909.34;;;6.24;100.00
5872;BME280;2962;51.312;7.378;2023-03-14T05:07:44;94934.44;;;6.24;100.00
5872;BME280;2962;51.312;7.378;2023-03-14T05:10:10;94913.16;;;6.26;100.00
5872;BME280;2962;51.312;7.378;2023-03-14T05:12:35;94912.09;;;6.20;100.00
5872;BME280;2962;51.312;7.378;2023-03-14T05:15:01;94898.59;;;6.17;100.00
5872;BME280;2962;51.312;7.378;2023-03-14T05:17:26;94898.16;;;6.22;100.00
5872;BME280;2962;51.312;7.378;2023-03-14T05:19:51;94903.97;;;6.20;100.00
5872;BME280;2962;51.312;7.378;2023-03-14T05:22:17;94887.00;;;6.20;100.00
5872;BME280;2962;51.312;7.378;2023-03-14T05:24:42;94899.31;;;6.21;100.00
5872;BME280;2962;51.312;7.378;2023-03-14T05:27:07;94866.16;;;6.17;100.00
5872;BME280;2962;51.312;7.378;2023-03-14T05:29:32;94897.72;;;6.27;100.00
5872;BME280;2962;51.312;7.378;2023-03-14T05:31:58;94875.72;;;6.25;100.00
5872;BME280;2962;51.312;7.378;2023-03-14T05:34:23;94891.50;;;6.30;100.00
5872;BME280;2962;51.312;7.378;2023-03-14T05:36:48;94887.25;;;6.29;100.00
5872;BME280;2962;51.312;7.378;2023-03-14T05:39:13;94906.19;;;6.29;100.00
5872;BME280;2962;51.312;7.378;2023-03-14T05:41:39;94892.72;;;6.25;100.00
5872;BME280;2962;51.312;7.378;2023-03-14T05:44:04;94834.59;;;6.06;100.00
5872;BME280;2962;51.312;7.378;2023-03-14T05:46:29;94896.22;;;6.22;100.00
5872;BME280;2962;51.312;7.378;2023-03-14T05:48:58;94864.69;;;6.08;100.00
5872;BME280;2962;51.312;7.378;2023-03-14T05:51:24;94894.25;;;6.26;100.00
5872;BME280;2962;51.312;7.378;2023-03-14T05:53:50;94879.53;;;6.31;100.00
5872;BME280;2962;51.312;7.378;2023-03-14T05:56:15;94889.97;;;6.29;100.00
5872;BME280;2962;51.312;7.378;2023-03-14T05:58:40;94885.78;;;6.24;100.00
5872;BME280;2962;51.312;7.378;2023-03-14T06:01:06;94880.03;;;6.19;100.00
5872;BME280;2962;51.312;7.378;2023-03-14T06:03:32;94889.97;;;6.29;100.00
5872;BME280;2962;51.312;7.378;2023-03-14T06:05:57;94884.63;;;6.22;100.00
5872;BME280;2962;51.312;7.378;2023-03-14T06:08:23;94891.19;;;6.24;100.00
5872;BME280;2962;51.312;7.378;2023-03-14T06:10:48;94886.09;;;6.30;100.00
5872;BME280;2962;51.312;7.378;2023-03-14T06:13:14;94883.53;;;6.19;100.00
5872;BME280;2962;51.312;7.378;2023-03-14T06:15:40;94893.81;;;6.31;100.00
5872;BME280;2962;51.312;7.378;2023-03-14T06:18:06;94896.16;;;6.29;100.00
5872;BME280;2962;51.312;7.378;2023-03-14T06:20:31;94883.72;;;6.35;100.00
5872;BME280;2962;51.312;7.378;2023-03-14T06:22:58;94875.00;;;6.21;100.00
5872;BME280;2962;51.312;7.378;2023-03-14T06:25:23;94878.13;;;6.19;100.00
5872;BME280;2962;51.312;7.378;2023-03-14T06:27:48;94883.84;;;6.25;100.00
5872;BME280;2962;51.312;7.378;2023-03-14T06:30:14;94895.75;;;6.31;100.00
5872;BME280;2962;51.312;7.378;2023-03-14T06:32:39;94880.59;;;6.37;100.00
5872;BME280;2962;51.312;7.378;2023-03-14T06:35:05;94904.88;;;6.44;100.00
5872;BME280;2962;51.312;7.378;2023-03-14T06:37:30;94904.53;;;6.42;100.00
5872;BME280;2962;51.312;7.378;2023-03-14T06:39:55;94891.38;;;6.41;100.00
5872;BME280;2962;51.312;7.378;2023-03-14T06:42:21;94869.72;;;6.44;100.00
5872;BME280;2962;51.312;7.378;2023-03-14T06:44:47;94894.44;;;6.46;100.00
5872;BME280;2962;51.312;7.378;2023-03-14T06:47:12;94892.06;;;6.48;100.00
5872;BME280;2962;51.312;7.378;2023-03-14T06:49:37;94894.84;;;6.41;100.00
5872;BME280;2962;51.312;7.378;2023-03-14T06:52:03;94899.44;;;6.48;100.00
5872;BME280;2962;51.312;7.378;2023-03-14T06:54:28;94899.81;;;6.50;100.00
5872;BME280;2962;51.312;7.378;2023-03-14T06:56:54;94912.88;;;6.55;100.00
5872;BME280;2962;51.312;7.378;2023-03-14T06:59:19;94904.44;;;6.49;100.00
5872;BME280;2962;51.312;7.378;2023-03-14T07:01:44;94904.84;;;6.48;100.00
5872;BME280;2962;51.312;7.378;2023-03-14T07:04:10;94916.00;;;6.53;100.00
5872;BME280;2962;51.312;7.378;2023-03-14T07:06:35;94900.25;;;6.41;100.00
5872;BME280;2962;51.312;7.378;2023-03-14T07:09:01;94891.72;;;6.46;100.00
5872;BME280;2962;51.312;7.378;2023-03-14T07:11:26;94916.38;;;6.52;100.00
5872;BME280;2962;51.312;7.378;2023-03-14T07:13:52;94913.69;;;6.52;100.00
5872;BME280;2962;51.312;7.378;2023-03-14T07:16:17;94922.25;;;6.47;100.00
5872;BME280;2962;51.312;7.378;2023-03-14T07:18:42;94898.69;;;6.44;100.00
5872;BME280;2962;51.312;7.378;2023-03-14T07:21:08;94933.88;;;6.44;100.00
5872;BME280;2962;51.312;7.378;2023-03-14T07:23:37;94928.50;;;6.40;100.00
5872;BME280;2962;51.312;7.378;2023-03-14T07:26:03;94933.13;;;6.40;100.00
5872;BME280;2962;51.312;7.378;2023-03-14T07:28:28;94936.94;;;6.46;100.00
5872;BME280;2962;51.312;7.378;2023-03-14T07:30:54;94930.06;;;6.38;100.00
5872;BME280;2962;51.312;7.378;2023-03-14T07:33:20;94925.84;;;6.33;100.00
5872;BME280;2962;51.312;7.378;2023-03-14T07:35:47;94934.31;;;6.39;100.00
5872;BME280;2962;51.312;7.378;2023-03-14T07:38:13;94920.72;;;6.46;100.00
5872;BME280;2962;51.312;7.378;2023-03-14T07:40:38;94913.03;;;6.41;100.00
5872;BME280;2962;51.312;7.378;2023-03-14T07:43:03;94924.63;;;6.38;100.00
5872;BME280;2962;51.312;7.378;2023-03-14T07:45:28;94917.63;;;6.44;100.00
5872;BME280;2962;51.312;7.378;2023-03-14T07:47:54;94928.00;;;6.49;100.00
5872;BME280;2962;51.312;7.378;2023-03-14T07:50:22;94923.81;;;6.44;100.00
5872;BME280;2962;51.312;7.378;2023-03-14T07:52:48;94952.75;;;6.47;100.00
5872;BME280;2962;51.312;7.378;2023-03-14T07:55:14;94939.59;;;6.49;100.00
5872;BME280;2962;51.312;7.378;2023-03-14T07:57:39;94938.03;;;6.52;100.00
5872;BME280;2962;51.312;7.378;2023-03-14T08:00:05;94934.59;;;6.48;100.00
5872;BME280;2962;51.312;7.378;2023-03-14T08:02:30;94937.69;;;6.50;100.00
5872;BME280;2962;51.312;7.378;2023-03-14T08:04:56;94949.56;;;6.56;100.00
5872;BME280;2962;51.312;7.378;2023-03-14T08:07:21;94932.47;;;6.66;100.00
5872;BME280;2962;51.312;7.378;2023-03-14T08:09:46;94943.28;;;6.66;100.00
5872;BME280;2962;51.312;7.378;2023-03-14T08:12:11;94935.91;;;6.70;100.00
5872;BME280;2962;51.312;7.378;2023-03-14T08:14:37;94932.09;;;6.64;100.00
5872;BME280;2962;51.312;7.378;2023-03-14T08:17:02;94946.22;;;6.79;100.00
5872;BME280;2962;51.312;7.378;2023-03-14T08:19:28;94924.63;;;6.75;100.00
5872;BME280;2962;51.312;7.378;2023-03-14T08:21:53;94931.91;;;6.82;100.00
5872;BME280;2962;51.312;7.378;2023-03-14T08:24:18;94918.81;;;6.77;100.00
5872;BME280;2962;51.312;7.378;2023-03-14T08:26:43;94931.94;;;6.78;100.00
5872;BME280;2962;51.312;7.378;2023-03-14T08:29:09;94945.00;;;6.83;100.00
5872;BME280;2962;51.312;7.378;2023-03-14T08:31:35;94948.53;;;6.80;100.00
5872;BME280;2962;51.312;7.378;2023-03-14T08:34:00;94962.06;;;6.80;100.00
5872;BME280;2962;51.312;7.378;2023-03-14T08:36:27;94950.41;;;6.83;100.00
5872;BME280;2962;51.312;7.378;2023-03-14T08:38:52;94960.28;;;7.01;100.00
5872;BME280;2962;51.312;7.378;2023-03-14T08:41:17;94957.97;;;6.99;100.00
5872;BME280;2962;51.312;7.378;2023-03-14T08:43:42;94962.09;;;7.11;100.00
5872;BME280;2962;51.312;7.378;2023-03-14T08:46:08;94960.78;;;7.23;100.00
5872;BME280;2962;51.312;7.378;2023-03-14T08:48:33;94942.41;;;7.07;100.00
5872;BME280;2962;51.312;7.378;2023-03-14T08:51:10;94958.75;;;7.30;100.00
5872;BME280;2962;51.312;7.378;2023-03-14T08:53:37;94971.16;;;7.28;100.00
5872;BME280;2962;51.312;7.378;2023-03-14T08:56:03;94961.59;;;7.20;100.00
5872;BME280;2962;51.312;7.378;2023-03-14T08:58:30;94956.28;;;7.13;100.00
5872;BME280;2962;51.312;7.378;2023-03-14T09:00:56;94966.13;;;7.26;100.00
5872;BME280;2962;51.312;7.378;2023-03-14T09:03:21;94966.50;;;7.28;100.00
5872;BME280;2962;51.312;7.378;2023-03-14T09:05:48;94970.78;;;7.26;100.00
5872;BME280;2962;51.312;7.378;2023-03-14T09:08:14;94965.91;;;7.14;100.00
5872;BME280;2962;51.312;7.378;2023-03-14T09:10:39;94962.72;;;7.22;100.00
5872;BME280;2962;51.312;7.378;2023-03-14T09:13:05;94961.47;;;7.30;100.00
5872;BME280;2962;51.312;7.378;2023-03-14T09:15:30;94968.72;;;7.37;100.00
5872;BME280;2962;51.312;7.378;2023-03-14T09:17:55;94981.09;;;7.38;100.00
5872;BME280;2962;51.312;7.378;2023-03-14T09:20:20;94957.56;;;7.31;100.00
5872;BME280;2962;51.312;7.378;2023-03-14T09:22:46;94981.81;;;7.42;100.00
5872;BME280;2962;51.312;7.378;2023-03-14T09:25:11;94970.56;;;7.44;100.00
5872;BME280;2962;51.312;7.378;2023-03-14T09:27:36;94984.16;;;7.40;100.00
5872;BME280;2962;51.312;7.378;2023-03-14T09:30:03;94992.66;;;7.42;100.00
5872;BME280;2962;51.312;7.378;2023-03-14T09:32:29;95012.28;;;7.50;100.00
5872;BME280;2962;51.312;7.378;2023-03-14T09:34:56;95002.16;;;7.54;100.00
5872;BME280;2962;51.312;7.378;2023-03-14T09:37:21;95002.50;;;7.56;100.00
5872;BME280;2962;51.312;7.378;2023-03-14T09:39:47;95006.41;;;7.55;100.00
5872;BME280;2962;51.312;7.378;2023-03-14T09:42:18;95021.34;;;7.67;100.00
5872;BME280;2962;51.312;7.378;2023-03-14T09:44:57;95032.94;;;7.67;100.00
5872;BME280;2962;51.312;7.378;2023-03-14T09:47:24;95028.44;;;7.57;100.00
5872;BME280;2962;51.312;7.378;2023-03-14T09:49:50;95053.94;;;7.59;100.00
5872;BME280;2962;51.312;7.378;2023-03-14T09:52:21;95043.88;;;7.60;100.00
5872;BME280;2962;51.312;7.378;2023-03-14T09:54:50;95049.28;;;7.29;100.00
5872;BME280;2962;51.312;7.378;2023-03-14T09:57:18;95062.09;;;7.25;100.00
5872;BME280;2962;51.312;7.378;2023-03-14T09:59:46;95055.69;;;7.12;100.00
5872;BME280;2962;51.312;7.378;2023-03-14T10:02:20;95111.34;;;6.75;100.00
5872;BME280;2962;51.312;7.378;2023-03-14T10:04:47;95079.19;;;6.40;100.00
5872;BME280;2962;51.312;7.378;2023-03-14T10:07:23;95112.44;;;6.33;100.00
5872;BME280;2962;51.312;7.378;2023-03-14T10:09:51;95138.84;;;6.11;100.00
5872;BME280;2962;51.312;7.378;2023-03-14T10:12:18;95136.72;;;5.74;100.00
5872;BME280;2962;51.312;7.378;2023-03-14T10:14:49;95130.31;;;5.28;100.00
5872;BME280;2962;51.312;7.378;2023-03-14T10:17:15;95155.38;;;5.29;100.00
5872;BME280;2962;51.312;7.378;2023-03-14T10:19:58;95159.66;;;5.08;100.00
5872;BME280;2962;51.312;7.378;2023-03-14T10:22:26;95155.44;;;5.04;100.00
5872;BME280;2962;51.312;7.378;2023-03-14T10:24:55;95180.84;;;5.03;100.00
5872;BME280;2962;51.312;7.378;2023-03-14T10:27:32;95193.56;;;5.13;100.00
5872;BME280;2962;51.312;7.378;2023-03-14T10:30:00;95192.81;;;4.95;100.00
5872;BME280;2962;51.312;7.378;2023-03-14T10:32:36;95212.47;;;5.06;100.00
5872;BME280;2962;51.312;7.378;2023-03-14T10:35:11;95221.34;;;5.10;100.00
5872;BME280;2962;51.312;7.378;2023-03-14T10:38:03;95226.75;;;4.92;100.00
5872;BME280;2962;51.312;7.378;2023-03-14T10:40:34;95239.84;;;4.90;100.00
5872;BME280;2962;51.312;7.378;2023-03-14T10:43:04;95249.88;;;4.97;100.00
5872;BME280;2962;51.312;7.378;2023-03-14T10:45:32;95260.28;;;4.91;100.00
5872;BME280;2962;51.312;7.378;2023-03-14T10:48:19;95275.69;;;4.80;100.00
5872;BME280;2962;51.312;7.378;2023-03-14T10:53:25;95293.41;;;4.74;100.00
5872;BME280;2962;51.312;7.378;2023-03-14T10:55:50;95311.88;;;4.72;100.00
5872;BME280;2962;51.312;7.378;2023-03-14T10:58:21;95298.00;;;4.62;100.00
5872;BME280;2962;51.312;7.378;2023-03-14T11:00:51;95321.13;;;4.67;100.00
5872;BME280;2962;51.312;7.378;2023-03-14T11:03:19;95323.03;;;4.59;100.00
5872;BME280;2962;51.312;7.378;2023-03-14T11:06:07;95339.63;;;4.69;100.00
5872;BME280;2962;51.312;7.378;2023-03-14T11:11:33;95376.63;;;4.68;100.00
5872;BME280;2962;51.312;7.378;2023-03-14T11:19:58;95389.53;;;4.30;100.00
5872;BME280;2962;51.312;7.378;2023-03-14T11:22:35;95407.59;;;4.23;100.00
5872;BME280;2962;51.312;7.378;2023-03-14T11:27:55;95410.59;;;4.07;100.00
5872;BME280;2962;51.312;7.378;2023-03-14T11:30:36;95424.13;;;4.14;100.00
5872;BME280;2962;51.312;7.378;2023-03-14T11:33:16;95454.16;;;4.16;100.00
5872;BME280;2962;51.312;7.378;2023-03-14T11:35:55;95469.84;;;4.03;100.00
5872;BME280;2962;51.312;7.378;2023-03-14T11:38:30;95466.31;;;3.92;100.00
5872;BME280;2962;51.312;7.378;2023-03-14T11:40:59;95487.84;;;3.88;100.00
5872;BME280;2962;51.312;7.378;2023-03-14T11:43:30;95477.72;;;3.75;100.00
5872;BME280;2962;51.312;7.378;2023-03-14T11:46:16;95501.69;;;3.90;100.00
5872;BME280;2962;51.312;7.378;2023-03-14T11:48:59;95495.56;;;3.94;100.00
5872;BME280;2962;51.312;7.378;2023-03-14T11:51:33;95479.09;;;3.58;100.00
5872;BME280;2962;51.312;7.378;2023-03-14T11:54:14;95494.09;;;3.59;100.00
5872;BME280;2962;51.312;7.378;2023-03-14T11:56:47;95500.50;;;3.43;100.00
5872;BME280;2962;51.312;7.378;2023-03-14T11:59:47;95524.81;;;3.51;100.00
5872;BME280;2962;51.312;7.378;2023-03-14T12:10:29;95554.81;;;3.53;100.00
5872;BME280;2962;51.312;7.378;2023-03-14T12:12:55;95558.63;;;3.48;100.00
5872;BME280;2962;51.312;7.378;2023-03-14T12:15:21;95574.06;;;3.55;100.00
5872;BME280;2962;51.312;7.378;2023-03-14T12:17:53;95580.84;;;3.41;100.00
5872;BME280;2962;51.312;7.378;2023-03-14T12:20:22;95598.31;;;3.55;100.00
5872;BME280;2962;51.312;7.378;2023-03-14T12:22:51;95603.56;;;3.44;100.00
5872;BME280;2962;51.312;7.378;2023-03-14T12:25:22;95611.50;;;3.33;100.00
5872;BME280;2962;51.312;7.378;2023-03-14T12:30:36;95619.53;;;3.30;100.00
5872;BME280;2962;51.312;7.378;2023-03-14T12:38:13;95646.34;;;3.19;100.00
5872;BME280;2962;51.312;7.378;2023-03-14T12:43:33;95667.94;;;3.26;100.00
5872;BME280;2962;51.312;7.378;2023-03-14T12:46:14;95695.13;;;3.17;100.00
5872;BME280;2962;51.312;7.378;2023-03-14T12:49:05;95696.25;;;3.16;100.00
5872;BME280;2962;51.312;7.378;2023-03-14T12:51:35;95711.28;;;2.94;100.00
5872;BME280;2962;51.312;7.378;2023-03-14T12:59:55;95724.44;;;3.00;100.00
5872;BME280;2962;51.312;7.378;2023-03-14T13:02:25;95747.22;;;3.32;100.00
5872;BME280;2962;51.312;7.378;2023-03-14T13:07:33;95754.97;;;4.24;100.00
5872;BME280;2962;51.312;7.378;2023-03-14T13:10:09;95751.28;;;4.39;100.00
5872;BME280;2962;51.312;7.378;2023-03-14T13:15:22;95757.56;;;4.95;100.00
5872;BME280;2962;51.312;7.378;2023-03-14T13:17:49;95766.66;;;4.76;100.00
5872;BME280;2962;51.312;7.378;2023-03-14T13:20:24;95760.50;;;4.76;100.00
5872;BME280;2962;51.312;7.378;2023-03-14T13:22:51;95763.75;;;4.55;100.00
5872;BME280;2962;51.312;7.378;2023-03-14T13:25:17;95760.47;;;4.35;100.00
5872;BME280;2962;51.312;7.378;2023-03-14T13:27:46;95778.72;;;4.15;100.00
5872;BME280;2962;51.312;7.378;2023-03-14T13:30:16;95796.28;;;4.02;100.00
5872;BME280;2962;51.312;7.378;2023-03-14T13:32:43;95804.69;;;3.97;100.00
5872;BME280;2962;51.312;7.378;2023-03-14T13:35:19;95806.16;;;3.64;100.00
5872;BME280;2962;51.312;7.378;2023-03-14T13:37:45;95846.81;;;3.32;100.00
5872;BME280;2962;51.312;7.378;2023-03-14T13:40:24;95836.97;;;2.32;100.00
5872;BME280;2962;51.312;7.378;2023-03-14T13:43:02;95862.88;;;2.05;100.00
5872;BME280;2962;51.312;7.378;2023-03-14T13:45:29;95865.56;;;2.05;100.00
5872;BME280;2962;51.312;7.378;2023-03-14T13:47:54;95886.88;;;2.14;100.00
5872;BME280;2962;51.312;7.378;2023-03-14T13:50:20;95881.41;;;2.10;100.00
5872;BME280;2962;51.312;7.378;2023-03-14T13:52:45;95892.75;;;2.19;100.00
5872;BME280;2962;51.312;7.378;2023-03-14T13:55:17;95914.59;;;2.37;100.00
5872;BME280;2962;51.312;7.378;2023-03-14T13:57:51;95919.59;;;2.55;100.00
5872;BME280;2962;51.312;7.378;2023-03-14T14:00:25;95910.44;;;2.40;100.00
5872;BME280;2962;51.312;7.378;2023-03-14T14:02:55;95913.75;;;2.33;100.00
5872;BME280;2962;51.312;7.378;2023-03-14T14:05:22;95938.66;;;2.50;100.00
5872;BME280;2962;51.312;7.378;2023-03-14T14:07:49;95933.94;;;2.43;100.00
5872;BME280;2962;51.312;7.378;2023-03-14T14:10:16;95939.56;;;2.38;100.00
5872;BME280;2962;51.312;7.378;2023-03-14T14:12:51;95944.84;;;2.50;100.00
5872;BME280;2962;51.312;7.378;2023-03-14T14:15:22;95956.59;;;2.61;100.00